sensor_id;sensor_type;location;lat;lon;timestamp;P1;durP1;ratioP1;P2;durP2;ratioP2
47155;SDS011;32908;52.344;16.858;2023-04-15T00:01:08;9.60;;;6.50;;
47155;SDS011;32908;52.344;16.858;2023-04-15T00:03:36;15.10;;;7.90;;
47155;SDS011;32908;52.344;16.858;2023-04-15T00:06:04;9.30;;;6.50;;
47155;SDS011;32908;52.344;16.858;2023-04-15T00:08:33;11.30;;;6.70;;
47155;SDS011;32908;52.344;16.858;2023-04-15T00:11:01;9.80;;;7.80;;
47155;SDS011;32908;52.344;16.858;2023-04-15T00:13:31;9.50;;;7.20;;
47155;SDS011;32908;52.344;16.858;2023-04-15T00:16:00;9.70;;;6.80;;
47155;SDS011;32908;52.344;16.858;2023-04-15T00:18:28;9.40;;;6.50;;
47155;SDS011;32908;52.344;16.858;2023-04-15T00:20:56;10.20;;;6.90;;
47155;SDS011;32908;52.344;16.858;2023-04-15T00:23:24;11.70;;;6.20;;
47155;SDS011;32908;52.344;16.858;2023-04-15T00:25:54;8.10;;;6.50;;
47155;SDS011;32908;52.344;16.858;2023-04-15T00:28:22;8.60;;;6.70;;
47155;SDS011;32908;52.344;16.858;2023-04-15T00:30:50;9.80;;;6.90;;
47155;SDS011;32908;52.344;16.858;2023-04-15T00:33:18;8.00;;;6.70;;
47155;SDS011;32908;52.344;16.858;2023-04-15T00:35:46;9.30;;;6.50;;
47155;SDS011;32908;52.344;16.858;2023-04-15T00:38:14;8.30;;;7.00;;
47155;SDS011;32908;52.344;16.858;2023-04-15T00:40:41;8.60;;;6.80;;
47155;SDS011;32908;52.344;16.858;2023-04-15T00:43:10;11.40;;;7.00;;
47155;SDS011;32908;52.344;16.858;2023-04-15T00:45:38;9.80;;;7.00;;
47155;SDS011;32908;52.344;16.858;2023-04-15T00:48:06;10.20;;;6.60;;
47155;SDS011;32908;52.344;16.858;2023-04-15T00:50:35;9.40;;;7.20;;
47155;SDS011;32908;52.344;16.858;2023-04-15T00:53:03;10.10;;;7.00;;
47155;SDS011;32908;52.344;16.858;2023-04-15T00:55:31;9.10;;;6.70;;
47155;SDS011;32908;52.344;16.858;2023-04-15T00:57:59;8.50;;;6.00;;
47155;SDS011;32908;52.344;16.858;2023-04-15T01:00:27;10.10;;;6.90;;
47155;SDS011;32908;52.344;16.858;2023-04-15T01:02:55;10.50;;;7.30;;
47155;SDS011;32908;52.344;16.858;2023-04-15T01:05:23;8.50;;;6.30;;
47155;SDS011;32908;52.344;16.858;2023-04-15T01:07:52;9.30;;;6.50;;
47155;SDS011;32908;52.344;16.858;2023-04-15T01:10:20;8.50;;;6.70;;
47155;SDS011;32908;52.344;16.858;2023-04-15T01:12:48;7.90;;;6.90;;
47155;SDS011;32908;52.344;16.858;2023-04-15T01:15:16;8.20;;;6.70;;
47155;SDS011;32908;52.344;16.858;2023-04-15T01:17:44;12.30;;;7.40;;
47155;SDS011;32908;52.344;16.858;2023-04-15T01:20:13;12.00;;;7.00;;
47155;SDS011;32908;52.344;16.858;2023-04-15T01:22:41;10.00;;;6.70;;
47155;SDS011;32908;52.344;16.858;2023-04-15T01:25:11;8.20;;;6.70;;
47155;SDS011;32908;52.344;16.858;2023-04-15T01:27:41;10.00;;;7.40;;
47155;SDS011;32908;52.344;16.858;2023-04-15T01:30:09;9.50;;;7.10;;
47155;SDS011;32908;52.344;16.858;2023-04-15T01:32:37;8.70;;;6.50;;
47155;SDS011;32908;52.344;16.858;2023-04-15T01:35:06;10.40;;;7.80;;
47155;SDS011;32908;52.344;16.858;2023-04-15T01:37:35;10.30;;;7.40;;
47155;SDS011;32908;52.344;16.858;2023-04-15T01:40:03;9.70;;;7.00;;
47155;SDS011;32908;52.344;16.858;2023-04-15T01:42:33;10.10;;;7.50;;
47155;SDS011;32908;52.344;16.858;2023-04-15T01:45:02;9.40;;;7.60;;
47155;SDS011;32908;52.344;16.858;2023-04-15T01:47:30;9.20;;;7.30;;
47155;SDS011;32908;52.344;16.858;2023-04-15T01:49:58;10.60;;;7.60;;
47155;SDS011;32908;52.344;16.858;2023-04-15T01:52:27;12.70;;;8.10;;
47155;SDS011;32908;52.344;16.858;2023-04-15T01:54:54;12.60;;;8.30;;
47155;SDS011;32908;52.344;16.858;2023-04-15T01:57:22;8.50;;;7.50;;
47155;SDS011;32908;52.344;16.858;2023-04-15T01:59:50;12.40;;;7.50;;
47155;SDS011;32908;52.344;16.858;2023-04-15T02:02:18;9.40;;;7.20;;
47155;SDS011;32908;52.344;16.858;2023-04-15T02:04:46;9.90;;;6.90;;
47155;SDS011;32908;52.344;16.858;2023-04-15T02:07:14;8.90;;;7.00;;
47155;SDS011;32908;52.344;16.858;2023-04-15T02:09:42;11.50;;;7.30;;
47155;SDS011;32908;52.344;16.858;2023-04-15T02:12:11;9.00;;;7.00;;
47155;SDS011;32908;52.344;16.858;2023-04-15T02:14:39;9.50;;;7.20;;
47155;SDS011;32908;52.344;16.858;2023-04-15T02:17:07;9.00;;;6.70;;
47155;SDS011;32908;52.344;16.858;2023-04-15T02:19:36;9.40;;;7.00;;
47155;SDS011;32908;52.344;16.858;2023-04-15T02:22:04;9.70;;;7.10;;
47155;SDS011;32908;52.344;16.858;2023-04-15T02:24:34;10.70;;;7.40;;
47155;SDS011;32908;52.344;16.858;2023-04-15T02:27:02;10.00;;;7.50;;
47155;SDS011;32908;52.344;16.858;2023-04-15T02:29:31;9.50;;;7.70;;
47155;SDS011;32908;52.344;16.858;2023-04-15T02:31:58;10.00;;;7.20;;
47155;SDS011;32908;52.344;16.858;2023-04-15T02:34:26;9.00;;;6.90;;
47155;SDS011;32908;52.344;16.858;2023-04-15T02:36:54;9.20;;;7.60;;
47155;SDS011;32908;52.344;16.858;2023-04-15T02:39:23;10.90;;;7.70;;
47155;SDS011;32908;52.344;16.858;2023-04-15T02:41:50;9.80;;;7.40;;
47155;SDS011;32908;52.344;16.858;2023-04-15T02:44:19;10.00;;;7.30;;
47155;SDS011;32908;52.344;16.858;2023-04-15T02:46:48;8.40;;;6.60;;
47155;SDS011;32908;52.344;16.858;2023-04-15T02:49:17;8.90;;;7.10;;
47155;SDS011;32908;52.344;16.858;2023-04-15T02:51:45;10.80;;;7.50;;
47155;SDS011;32908;52.344;16.858;2023-04-15T02:54:15;12.40;;;7.60;;
47155;SDS011;32908;52.344;16.858;2023-04-15T02:56:43;9.30;;;6.80;;
47155;SDS011;32908;52.344;16.858;2023-04-15T02:59:11;10.20;;;8.20;;
47155;SDS011;32908;52.344;16.858;2023-04-15T03:01:39;10.30;;;8.00;;
47155;SDS011;32908;52.344;16.858;2023-04-15T03:04:07;12.80;;;8.90;;
47155;SDS011;32908;52.344;16.858;2023-04-15T03:06:35;8.90;;;7.40;;
47155;SDS011;32908;52.344;16.858;2023-04-15T03:09:03;12.30;;;8.30;;
47155;SDS011;32908;52.344;16.858;2023-04-15T03:11:31;10.30;;;8.30;;
47155;SDS011;32908;52.344;16.858;2023-04-15T03:14:00;10.40;;;7.90;;
47155;SDS011;32908;52.344;16.858;2023-04-15T03:16:28;9.70;;;7.90;;
47155;SDS011;32908;52.344;16.858;2023-04-15T03:18:56;11.40;;;8.10;;
47155;SDS011;32908;52.344;16.858;2023-04-15T03:21:24;11.30;;;9.10;;
47155;SDS011;32908;52.344;16.858;2023-04-15T03:23:52;9.10;;;7.50;;
47155;SDS011;32908;52.344;16.858;2023-04-15T03:26:26;9.70;;;7.80;;
47155;SDS011;32908;52.344;16.858;2023-04-15T03:28:54;10.70;;;8.20;;
47155;SDS011;32908;52.344;16.858;2023-04-15T03:31:22;9.70;;;7.60;;
47155;SDS011;32908;52.344;16.858;2023-04-15T03:33:50;11.30;;;7.50;;
47155;SDS011;32908;52.344;16.858;2023-04-15T03:36:18;10.60;;;8.80;;
47155;SDS011;32908;52.344;16.858;2023-04-15T03:38:46;10.00;;;7.80;;
47155;SDS011;32908;52.344;16.858;2023-04-15T03:41:14;12.40;;;8.40;;
47155;SDS011;32908;52.344;16.858;2023-04-15T03:43:42;12.30;;;9.20;;
47155;SDS011;32908;52.344;16.858;2023-04-15T03:46:10;9.60;;;7.80;;
47155;SDS011;32908;52.344;16.858;2023-04-15T03:48:38;11.70;;;7.80;;
47155;SDS011;32908;52.344;16.858;2023-04-15T03:51:06;10.70;;;7.80;;
47155;SDS011;32908;52.344;16.858;2023-04-15T03:53:34;11.30;;;8.40;;
47155;SDS011;32908;52.344;16.858;2023-04-15T03:56:02;11.70;;;8.60;;
47155;SDS011;32908;52.344;16.858;2023-04-15T03:58:31;10.40;;;8.00;;
47155;SDS011;32908;52.344;16.858;2023-04-15T04:00:59;10.50;;;8.60;;
47155;SDS011;32908;52.344;16.858;2023-04-15T04:03:26;11.20;;;9.60;;
47155;SDS011;32908;52.344;16.858;2023-04-15T04:05:54;16.10;;;9.30;;
47155;SDS011;32908;52.344;16.858;2023-04-15T04:08:22;13.30;;;8.50;;
47155;SDS011;32908;52.344;16.858;2023-04-15T04:10:50;10.10;;;8.60;;
47155;SDS011;32908;52.344;16.858;2023-04-15T04:13:18;13.60;;;9.50;;
47155;SDS011;32908;52.344;16.858;2023-04-15T04:15:46;11.10;;;8.50;;
47155;SDS011;32908;52.344;16.858;2023-04-15T04:18:14;12.70;;;9.40;;
47155;SDS011;32908;52.344;16.858;2023-04-15T04:20:42;14.00;;;9.40;;
47155;SDS011;32908;52.344;16.858;2023-04-15T04:23:10;10.50;;;8.90;;
47155;SDS011;32908;52.344;16.858;2023-04-15T04:25:38;14.40;;;8.90;;
47155;SDS011;32908;52.344;16.858;2023-04-15T04:28:06;12.70;;;8.80;;
47155;SDS011;32908;52.344;16.858;2023-04-15T04:30:35;12.80;;;9.20;;
47155;SDS011;32908;52.344;16.858;2023-04-15T04:33:03;12.20;;;9.00;;
47155;SDS011;32908;52.344;16.858;2023-04-15T04:35:31;12.60;;;9.80;;
47155;SDS011;32908;52.344;16.858;2023-04-15T04:38:00;13.70;;;10.50;;
47155;SDS011;32908;52.344;16.858;2023-04-15T04:40:28;12.70;;;10.00;;
47155;SDS011;32908;52.344;16.858;2023-04-15T04:42:56;13.10;;;10.10;;
47155;SDS011;32908;52.344;16.858;2023-04-15T04:45:24;11.20;;;8.70;;
47155;SDS011;32908;52.344;16.858;2023-04-15T04:47:52;15.20;;;10.20;;
47155;SDS011;32908;52.344;16.858;2023-04-15T04:50:20;17.60;;;11.00;;
47155;SDS011;32908;52.344;16.858;2023-04-15T04:52:48;13.70;;;9.90;;
47155;SDS011;32908;52.344;16.858;2023-04-15T04:55:16;12.60;;;9.20;;
47155;SDS011;32908;52.344;16.858;2023-04-15T04:57:44;12.50;;;10.40;;
47155;SDS011;32908;52.344;16.858;2023-04-15T05:00:13;11.50;;;9.30;;
47155;SDS011;32908;52.344;16.858;2023-04-15T05:02:41;12.70;;;9.60;;
47155;SDS011;32908;52.344;16.858;2023-04-15T05:05:09;11.80;;;9.50;;
47155;SDS011;32908;52.344;16.858;2023-04-15T05:07:38;12.70;;;9.70;;
47155;SDS011;32908;52.344;16.858;2023-04-15T05:10:07;15.70;;;10.70;;
47155;SDS011;32908;52.344;16.858;2023-04-15T05:12:36;12.70;;;10.20;;
47155;SDS011;32908;52.344;16.858;2023-04-15T05:15:05;12.50;;;9.60;;
47155;SDS011;32908;52.344;16.858;2023-04-15T05:17:34;14.00;;;9.80;;
47155;SDS011;32908;52.344;16.858;2023-04-15T05:20:02;12.20;;;10.20;;
47155;SDS011;32908;52.344;16.858;2023-04-15T05:22:31;12.10;;;9.70;;
47155;SDS011;32908;52.344;16.858;2023-04-15T05:24:59;14.20;;;10.50;;
47155;SDS011;32908;52.344;16.858;2023-04-15T05:27:27;13.80;;;10.10;;
47155;SDS011;32908;52.344;16.858;2023-04-15T05:29:55;13.30;;;10.60;;
47155;SDS011;32908;52.344;16.858;2023-04-15T05:32:23;14.10;;;10.60;;
47155;SDS011;32908;52.344;16.858;2023-04-15T05:34:51;11.40;;;9.20;;
47155;SDS011;32908;52.344;16.858;2023-04-15T05:37:19;11.80;;;9.80;;
47155;SDS011;32908;52.344;16.858;2023-04-15T05:39:47;13.00;;;10.30;;
47155;SDS011;32908;52.344;16.858;2023-04-15T05:42:15;15.70;;;11.50;;
47155;SDS011;32908;52.344;16.858;2023-04-15T05:44:43;12.70;;;10.30;;
47155;SDS011;32908;52.344;16.858;2023-04-15T05:47:11;12.50;;;9.90;;
47155;SDS011;32908;52.344;16.858;2023-04-15T05:49:39;12.70;;;10.20;;
47155;SDS011;32908;52.344;16.858;2023-04-15T05:52:07;12.50;;;10.10;;
47155;SDS011;32908;52.344;16.858;2023-04-15T05:54:35;14.00;;;10.70;;
47155;SDS011;32908;52.344;16.858;2023-04-15T05:57:03;12.30;;;10.40;;
47155;SDS011;32908;52.344;16.858;2023-04-15T05:59:31;20.50;;;11.90;;
47155;SDS011;32908;52.344;16.858;2023-04-15T06:01:58;13.60;;;11.00;;
47155;SDS011;32908;52.344;16.858;2023-04-15T06:04:27;13.00;;;10.60;;
47155;SDS011;32908;52.344;16.858;2023-04-15T06:06:55;13.80;;;11.00;;
47155;SDS011;32908;52.344;16.858;2023-04-15T06:09:23;12.00;;;10.20;;
47155;SDS011;32908;52.344;16.858;2023-04-15T06:11:51;14.20;;;10.80;;
47155;SDS011;32908;52.344;16.858;2023-04-15T06:14:19;10.40;;;9.10;;
47155;SDS011;32908;52.344;16.858;2023-04-15T06:16:47;13.10;;;10.00;;
47155;SDS011;32908;52.344;16.858;2023-04-15T06:19:15;13.10;;;9.40;;
47155;SDS011;32908;52.344;16.858;2023-04-15T06:21:44;12.00;;;9.90;;
47155;SDS011;32908;52.344;16.858;2023-04-15T06:24:12;14.00;;;10.00;;
47155;SDS011;32908;52.344;16.858;2023-04-15T06:26:40;11.10;;;8.90;;
47155;SDS011;32908;52.344;16.858;2023-04-15T06:29:08;12.30;;;9.90;;
47155;SDS011;32908;52.344;16.858;2023-04-15T06:31:36;14.00;;;10.60;;
47155;SDS011;32908;52.344;16.858;2023-04-15T06:34:04;14.40;;;10.60;;
47155;SDS011;32908;52.344;16.858;2023-04-15T06:36:32;12.40;;;9.90;;
47155;SDS011;32908;52.344;16.858;2023-04-15T06:39:00;13.10;;;9.80;;
47155;SDS011;32908;52.344;16.858;2023-04-15T06:41:28;12.30;;;10.00;;
47155;SDS011;32908;52.344;16.858;2023-04-15T06:43:56;14.10;;;10.40;;
47155;SDS011;32908;52.344;16.858;2023-04-15T06:46:24;11.90;;;9.70;;
47155;SDS011;32908;52.344;16.858;2023-04-15T06:48:53;12.20;;;9.90;;
47155;SDS011;32908;52.344;16.858;2023-04-15T06:51:21;12.40;;;9.70;;
47155;SDS011;32908;52.344;16.858;2023-04-15T06:53:49;12.60;;;10.70;;
47155;SDS011;32908;52.344;16.858;2023-04-15T06:56:17;12.70;;;10.50;;
47155;SDS011;32908;52.344;16.858;2023-04-15T06:58:45;14.90;;;11.00;;
47155;SDS011;32908;52.344;16.858;2023-04-15T07:01:13;13.90;;;11.20;;
47155;SDS011;32908;52.344;16.858;2023-04-15T07:03:41;14.20;;;11.40;;
47155;SDS011;32908;52.344;16.858;2023-04-15T07:06:09;15.30;;;12.20;;
47155;SDS011;32908;52.344;16.858;2023-04-15T07:08:38;14.40;;;11.70;;
47155;SDS011;32908;52.344;16.858;2023-04-15T07:11:06;13.20;;;10.70;;
47155;SDS011;32908;52.344;16.858;2023-04-15T07:13:34;12.60;;;10.60;;
47155;SDS011;32908;52.344;16.858;2023-04-15T07:16:02;15.30;;;10.50;;
47155;SDS011;32908;52.344;16.858;2023-04-15T07:18:30;10.90;;;9.20;;
47155;SDS011;32908;52.344;16.858;2023-04-15T07:20:58;13.10;;;9.90;;
47155;SDS011;32908;52.344;16.858;2023-04-15T07:23:26;11.70;;;9.20;;
47155;SDS011;32908;52.344;16.858;2023-04-15T07:25:55;14.10;;;9.30;;
47155;SDS011;32908;52.344;16.858;2023-04-15T07:28:23;12.10;;;9.10;;
47155;SDS011;32908;52.344;16.858;2023-04-15T07:30:51;12.60;;;10.90;;
47155;SDS011;32908;52.344;16.858;2023-04-15T07:33:19;15.40;;;11.70;;
47155;SDS011;32908;52.344;16.858;2023-04-15T07:35:47;15.50;;;12.00;;
47155;SDS011;32908;52.344;16.858;2023-04-15T07:38:15;17.90;;;12.10;;
47155;SDS011;32908;52.344;16.858;2023-04-15T07:40:43;12.50;;;10.70;;
47155;SDS011;32908;52.344;16.858;2023-04-15T07:43:11;12.70;;;11.10;;
47155;SDS011;32908;52.344;16.858;2023-04-15T07:45:39;14.20;;;11.70;;
47155;SDS011;32908;52.344;16.858;2023-04-15T07:48:06;12.20;;;10.30;;
47155;SDS011;32908;52.344;16.858;2023-04-15T07:50:34;14.40;;;11.00;;
47155;SDS011;32908;52.344;16.858;2023-04-15T07:53:03;16.50;;;11.70;;
47155;SDS011;32908;52.344;16.858;2023-04-15T07:55:31;16.80;;;11.70;;
47155;SDS011;32908;52.344;16.858;2023-04-15T07:57:59;17.40;;;12.30;;
47155;SDS011;32908;52.344;16.858;2023-04-15T08:00:27;15.20;;;12.10;;
47155;SDS011;32908;52.344;16.858;2023-04-15T08:02:56;13.60;;;11.10;;
47155;SDS011;32908;52.344;16.858;2023-04-15T08:05:24;13.50;;;11.20;;
47155;SDS011;32908;52.344;16.858;2023-04-15T08:07:52;14.30;;;11.50;;
47155;SDS011;32908;52.344;16.858;2023-04-15T08:10:20;15.00;;;11.20;;
47155;SDS011;32908;52.344;16.858;2023-04-15T08:12:49;16.10;;;11.50;;
47155;SDS011;32908;52.344;16.858;2023-04-15T08:15:19;78.20;;;32.10;;
47155;SDS011;32908;52.344;16.858;2023-04-15T08:17:47;51.40;;;28.70;;
47155;SDS011;32908;52.344;16.858;2023-04-15T08:20:15;57.90;;;38.50;;
47155;SDS011;32908;52.344;16.858;2023-04-15T08:22:44;332.70;;;182.80;;
47155;SDS011;32908;52.344;16.858;2023-04-15T08:25:13;451.20;;;247.30;;
47155;SDS011;32908;52.344;16.858;2023-04-15T08:27:41;526.60;;;305.50;;
47155;SDS011;32908;52.344;16.858;2023-04-15T08:30:09;720.00;;;462.20;;
47155;SDS011;32908;52.344;16.858;2023-04-15T08:32:38;439.50;;;271.30;;
47155;SDS011;32908;52.344;16.858;2023-04-15T08:35:07;394.50;;;237.30;;
47155;SDS011;32908;52.344;16.858;2023-04-15T08:37:36;272.60;;;161.30;;
47155;SDS011;32908;52.344;16.858;2023-04-15T08:40:05;172.50;;;56.90;;
47155;SDS011;32908;52.344;16.858;2023-04-15T08:42:35;72.50;;;26.50;;
47155;SDS011;32908;52.344;16.858;2023-04-15T08:45:07;40.00;;;17.60;;
47155;SDS011;32908;52.344;16.858;2023-04-15T08:47:36;48.50;;;21.80;;
47155;SDS011;32908;52.344;16.858;2023-04-15T08:50:07;37.40;;;18.30;;
47155;SDS011;32908;52.344;16.858;2023-04-15T08:52:37;21.20;;;12.60;;
47155;SDS011;32908;52.344;16.858;2023-04-15T08:55:06;15.80;;;11.10;;
47155;SDS011;32908;52.344;16.858;2023-04-15T08:57:35;14.10;;;10.60;;
47155;SDS011;32908;52.344;16.858;2023-04-15T09:00:04;14.20;;;11.10;;
47155;SDS011;32908;52.344;16.858;2023-04-15T09:02:34;13.80;;;11.30;;
47155;SDS011;32908;52.344;16.858;2023-04-15T09:05:02;12.90;;;10.60;;
47155;SDS011;32908;52.344;16.858;2023-04-15T09:07:33;12.40;;;10.70;;
47155;SDS011;32908;52.344;16.858;2023-04-15T09:10:02;10.30;;;8.80;;
47155;SDS011;32908;52.344;16.858;2023-04-15T09:12:32;11.80;;;10.00;;
47155;SDS011;32908;52.344;16.858;2023-04-15T09:15:03;11.60;;;10.10;;
47155;SDS011;32908;52.344;16.858;2023-04-15T09:17:32;11.70;;;9.90;;
47155;SDS011;32908;52.344;16.858;2023-04-15T09:20:07;11.60;;;9.20;;
47155;SDS011;32908;52.344;16.858;2023-04-15T09:22:36;10.90;;;9.40;;
47155;SDS011;32908;52.344;16.858;2023-04-15T09:25:05;10.70;;;9.20;;
47155;SDS011;32908;52.344;16.858;2023-04-15T09:27:52;10.40;;;9.30;;
47155;SDS011;32908;52.344;16.858;2023-04-15T09:30:21;11.40;;;10.20;;
47155;SDS011;32908;52.344;16.858;2023-04-15T09:32:50;12.90;;;10.50;;
47155;SDS011;32908;52.344;16.858;2023-04-15T09:35:20;8.30;;;6.60;;
47155;SDS011;32908;52.344;16.858;2023-04-15T09:37:49;3.50;;;2.80;;
47155;SDS011;32908;52.344;16.858;2023-04-15T09:40:30;6.00;;;4.10;;
47155;SDS011;32908;52.344;16.858;2023-04-15T09:42:58;6.80;;;4.90;;
47155;SDS011;32908;52.344;16.858;2023-04-15T09:45:28;5.10;;;4.40;;
47155;SDS011;32908;52.344;16.858;2023-04-15T09:47:56;4.90;;;4.00;;
47155;SDS011;32908;52.344;16.858;2023-04-15T09:50:26;4.60;;;3.80;;
47155;SDS011;32908;52.344;16.858;2023-04-15T09:52:55;4.00;;;3.30;;
47155;SDS011;32908;52.344;16.858;2023-04-15T09:55:23;4.20;;;3.40;;
47155;SDS011;32908;52.344;16.858;2023-04-15T09:57:51;4.60;;;3.60;;
47155;SDS011;32908;52.344;16.858;2023-04-15T10:00:20;4.00;;;3.20;;
47155;SDS011;32908;52.344;16.858;2023-04-15T10:02:48;4.70;;;3.50;;
47155;SDS011;32908;52.344;16.858;2023-04-15T10:05:16;3.90;;;3.50;;
47155;SDS011;32908;52.344;16.858;2023-04-15T10:07:44;4.20;;;3.50;;
47155;SDS011;32908;52.344;16.858;2023-04-15T10:10:12;4.90;;;3.80;;
47155;SDS011;32908;52.344;16.858;2023-04-15T10:12:41;4.90;;;3.50;;
47155;SDS011;32908;52.344;16.858;2023-04-15T10:15:10;5.90;;;3.70;;
47155;SDS011;32908;52.344;16.858;2023-04-15T10:17:41;7.00;;;4.10;;
47155;SDS011;32908;52.344;16.858;2023-04-15T10:20:11;5.40;;;3.10;;
47155;SDS011;32908;52.344;16.858;2023-04-15T10:22:40;4.10;;;3.20;;
47155;SDS011;32908;52.344;16.858;2023-04-15T10:25:08;3.70;;;3.00;;
47155;SDS011;32908;52.344;16.858;2023-04-15T10:27:38;3.70;;;3.00;;
47155;SDS011;32908;52.344;16.858;2023-04-15T10:30:08;5.20;;;4.10;;
47155;SDS011;32908;52.344;16.858;2023-04-15T10:32:37;6.20;;;4.60;;
47155;SDS011;32908;52.344;16.858;2023-04-15T10:35:05;5.20;;;3.60;;
47155;SDS011;32908;52.344;16.858;2023-04-15T10:37:35;4.70;;;3.70;;
47155;SDS011;32908;52.344;16.858;2023-04-15T10:40:23;5.90;;;3.30;;
47155;SDS011;32908;52.344;16.858;2023-04-15T10:42:53;8.60;;;5.40;;
47155;SDS011;32908;52.344;16.858;2023-04-15T10:45:22;5.50;;;4.70;;
47155;SDS011;32908;52.344;16.858;2023-04-15T10:47:54;6.50;;;5.60;;
47155;SDS011;32908;52.344;16.858;2023-04-15T10:50:25;5.80;;;4.60;;
47155;SDS011;32908;52.344;16.858;2023-04-15T10:52:54;7.00;;;4.50;;
47155;SDS011;32908;52.344;16.858;2023-04-15T10:55:23;9.40;;;5.80;;
47155;SDS011;32908;52.344;16.858;2023-04-15T10:57:52;7.60;;;5.60;;
47155;SDS011;32908;52.344;16.858;2023-04-15T11:00:24;6.00;;;4.60;;
47155;SDS011;32908;52.344;16.858;2023-04-15T11:02:55;8.10;;;5.60;;
47155;SDS011;32908;52.344;16.858;2023-04-15T11:08:15;15.00;;;9.80;;
47155;SDS011;32908;52.344;16.858;2023-04-15T11:10:52;14.70;;;9.30;;
47155;SDS011;32908;52.344;16.858;2023-04-15T11:13:24;14.10;;;8.70;;
47155;SDS011;32908;52.344;16.858;2023-04-15T11:15:58;15.50;;;9.00;;
47155;SDS011;32908;52.344;16.858;2023-04-15T11:18:27;22.20;;;13.20;;
47155;SDS011;32908;52.344;16.858;2023-04-15T11:21:04;19.10;;;11.00;;
47155;SDS011;32908;52.344;16.858;2023-04-15T11:23:35;14.00;;;8.40;;
47155;SDS011;32908;52.344;16.858;2023-04-15T11:26:05;11.30;;;7.00;;
47155;SDS011;32908;52.344;16.858;2023-04-15T11:28:35;7.80;;;4.60;;
47155;SDS011;32908;52.344;16.858;2023-04-15T11:31:07;7.90;;;5.00;;
47155;SDS011;32908;52.344;16.858;2023-04-15T11:33:37;5.50;;;4.60;;
47155;SDS011;32908;52.344;16.858;2023-04-15T11:36:10;8.50;;;5.90;;
47155;SDS011;32908;52.344;16.858;2023-04-15T11:38:41;6.50;;;5.10;;
47155;SDS011;32908;52.344;16.858;2023-04-15T11:41:10;6.00;;;4.50;;
47155;SDS011;32908;52.344;16.858;2023-04-15T11:43:38;8.40;;;5.60;;
47155;SDS011;32908;52.344;16.858;2023-04-15T11:46:06;6.70;;;4.70;;
47155;SDS011;32908;52.344;16.858;2023-04-15T11:48:35;6.60;;;3.70;;
47155;SDS011;32908;52.344;16.858;2023-04-15T11:51:07;5.30;;;3.70;;
47155;SDS011;32908;52.344;16.858;2023-04-15T11:53:36;5.00;;;3.40;;
47155;SDS011;32908;52.344;16.858;2023-04-15T11:56:06;5.30;;;4.10;;
47155;SDS011;32908;52.344;16.858;2023-04-15T11:58:35;8.40;;;5.00;;
47155;SDS011;32908;52.344;16.858;2023-04-15T12:01:04;9.50;;;6.40;;
47155;SDS011;32908;52.344;16.858;2023-04-15T12:03:36;13.70;;;7.90;;
47155;SDS011;32908;52.344;16.858;2023-04-15T12:06:08;9.50;;;8.00;;
47155;SDS011;32908;52.344;16.858;2023-04-15T12:08:51;9.80;;;7.50;;
47155;SDS011;32908;52.344;16.858;2023-04-15T12:11:30;8.10;;;6.10;;
47155;SDS011;32908;52.344;16.858;2023-04-15T12:14:01;8.60;;;6.30;;
47155;SDS011;32908;52.344;16.858;2023-04-15T12:16:32;13.50;;;9.90;;
47155;SDS011;32908;52.344;16.858;2023-04-15T12:19:03;15.60;;;10.20;;
47155;SDS011;32908;52.344;16.858;2023-04-15T12:21:33;9.10;;;6.40;;
47155;SDS011;32908;52.344;16.858;2023-04-15T12:24:05;9.10;;;5.30;;
47155;SDS011;32908;52.344;16.858;2023-04-15T12:26:35;7.30;;;4.60;;
47155;SDS011;32908;52.344;16.858;2023-04-15T12:29:04;9.20;;;6.60;;
47155;SDS011;32908;52.344;16.858;2023-04-15T12:31:34;11.00;;;7.20;;
47155;SDS011;32908;52.344;16.858;2023-04-15T12:34:02;12.20;;;7.20;;
47155;SDS011;32908;52.344;16.858;2023-04-15T12:36:33;10.50;;;6.40;;
47155;SDS011;32908;52.344;16.858;2023-04-15T12:39:02;11.40;;;6.40;;
47155;SDS011;32908;52.344;16.858;2023-04-15T12:41:31;16.30;;;8.60;;
47155;SDS011;32908;52.344;16.858;2023-04-15T12:43:59;16.80;;;9.50;;
47155;SDS011;32908;52.344;16.858;2023-04-15T12:46:27;20.00;;;10.80;;
47155;SDS011;32908;52.344;16.858;2023-04-15T12:48:56;24.40;;;10.10;;
47155;SDS011;32908;52.344;16.858;2023-04-15T12:51:24;14.80;;;8.00;;
47155;SDS011;32908;52.344;16.858;2023-04-15T12:53:53;11.50;;;7.00;;
47155;SDS011;32908;52.344;16.858;2023-04-15T12:56:20;8.20;;;5.40;;
47155;SDS011;32908;52.344;16.858;2023-04-15T12:58:49;7.70;;;5.90;;
47155;SDS011;32908;52.344;16.858;2023-04-15T13:01:17;14.20;;;7.30;;
47155;SDS011;32908;52.344;16.858;2023-04-15T13:03:45;7.80;;;5.40;;
47155;SDS011;32908;52.344;16.858;2023-04-15T13:06:13;7.60;;;4.30;;
47155;SDS011;32908;52.344;16.858;2023-04-15T13:08:41;5.90;;;4.20;;
47155;SDS011;32908;52.344;16.858;2023-04-15T13:11:09;5.70;;;3.70;;
47155;SDS011;32908;52.344;16.858;2023-04-15T13:13:37;6.00;;;3.80;;
47155;SDS011;32908;52.344;16.858;2023-04-15T13:16:05;5.90;;;3.70;;
47155;SDS011;32908;52.344;16.858;2023-04-15T13:18:33;5.00;;;3.50;;
47155;SDS011;32908;52.344;16.858;2023-04-15T13:21:01;6.70;;;5.80;;
47155;SDS011;32908;52.344;16.858;2023-04-15T13:23:29;4.90;;;3.80;;
47155;SDS011;32908;52.344;16.858;2023-04-15T13:25:57;5.20;;;3.80;;
47155;SDS011;32908;52.344;16.858;2023-04-15T13:28:26;11.10;;;4.70;;
47155;SDS011;32908;52.344;16.858;2023-04-15T13:30:54;6.50;;;4.30;;
47155;SDS011;32908;52.344;16.858;2023-04-15T13:33:22;8.10;;;5.50;;
47155;SDS011;32908;52.344;16.858;2023-04-15T13:35:50;7.20;;;4.40;;
47155;SDS011;32908;52.344;16.858;2023-04-15T13:38:18;3.40;;;2.50;;
47155;SDS011;32908;52.344;16.858;2023-04-15T13:40:46;4.20;;;3.30;;
47155;SDS011;32908;52.344;16.858;2023-04-15T13:43:15;3.90;;;2.70;;
47155;SDS011;32908;52.344;16.858;2023-04-15T13:45:45;11.90;;;7.00;;
47155;SDS011;32908;52.344;16.858;2023-04-15T13:48:14;16.00;;;8.00;;
47155;SDS011;32908;52.344;16.858;2023-04-15T13:50:42;13.50;;;8.60;;
47155;SDS011;32908;52.344;16.858;2023-04-15T13:53:10;10.70;;;7.80;;
47155;SDS011;32908;52.344;16.858;2023-04-15T13:55:39;12.90;;;8.90;;
47155;SDS011;32908;52.344;16.858;2023-04-15T13:58:08;25.10;;;16.40;;
47155;SDS011;32908;52.344;16.858;2023-04-15T14:00:36;22.50;;;16.10;;
47155;SDS011;32908;52.344;16.858;2023-04-15T14:03:04;17.60;;;11.90;;
47155;SDS011;32908;52.344;16.858;2023-04-15T14:05:32;15.90;;;10.20;;
47155;SDS011;32908;52.344;16.858;2023-04-15T14:08:00;16.70;;;9.20;;
47155;SDS011;32908;52.344;16.858;2023-04-15T14:10:28;11.20;;;8.20;;
47155;SDS011;32908;52.344;16.858;2023-04-15T14:12:56;11.40;;;8.00;;
47155;SDS011;32908;52.344;16.858;2023-04-15T14:15:24;13.80;;;9.20;;
47155;SDS011;32908;52.344;16.858;2023-04-15T14:17:52;14.00;;;9.70;;
47155;SDS011;32908;52.344;16.858;2023-04-15T14:20:21;15.90;;;10.50;;
47155;SDS011;32908;52.344;16.858;2023-04-15T14:22:48;17.80;;;11.30;;
47155;SDS011;32908;52.344;16.858;2023-04-15T14:25:16;18.10;;;11.30;;
47155;SDS011;32908;52.344;16.858;2023-04-15T14:27:44;18.50;;;12.60;;
47155;SDS011;32908;52.344;16.858;2023-04-15T14:30:12;19.80;;;11.30;;
47155;SDS011;32908;52.344;16.858;2023-04-15T14:32:40;18.20;;;11.60;;